Time;durP1;ratioP1;P1;durP2;ratioP2;P2;SDS_P1;SDS_P2;PMS_P1;PMS_P2;Temp;Humidity;BMP_temperature;BMP_pressure;BME280_temperature;BME280_humidity;BME280_pressure;Samples;Min_cycle;Max_cycle;Signal;HPM_P1;HPM_P2
2023/01/03 00:01:04;;;;;;;;;;;;;;;;;;5072140;28;19993;-58
2023/01/03 00:03:29;;;;;;;;;;;;;;;;;;5068290;28;20383;-59
2023/01/03 00:05:54;;;;;;;;;;;;;;;;;;5068881;28;19912;-59
2023/01/03 00:08:19;;;;;;;;;;;;;;;;;;5071991;28;19915;-59
2023/01/03 00:10:44;;;;;;;;;;;;;;;;;;5069216;28;20007;-60
2023/01/03 00:13:10;;;;;;;;;;;;;;;;;;5069886;28;20042;-59
2023/01/03 00:15:35;;;;;;;;;;;;;;;;;;5088084;28;19966;-60
2023/01/03 00:18:00;;;;;;;;;;;;;;;;;;5092866;28;20055;-59
2023/01/03 00:20:25;;;;;;;;;;;;;;;;;;5078829;28;19999;-59
2023/01/03 00:22:50;;;;;;;;;;;;;;;;;;5054594;28;19947;-59
2023/01/03 00:25:15;;;;;;;;;;;;;;;;;;5062953;28;19913;-59
2023/01/03 00:27:40;;;;;;;;;;;;;;;;;;5085900;28;20439;-60
2023/01/03 00:30:06;;;;;;;;;;;;;;;;;;5076822;28;19920;-59
2023/01/03 00:32:31;;;;;;;;;;;;;;;;;;5064956;28;20432;-59
2023/01/03 00:34:56;;;;;;;;;;;;;;;;;;5059654;28;19912;-59
2023/01/03 00:37:21;;;;;;;;;;;;;;;;;;5069776;28;19916;-58
2023/01/03 00:39:46;;;;;;;;;;;;;;;;;;5071820;28;19926;-59
2023/01/03 00:42:11;;;;;;;;;;;;;;;;;;5070051;28;19913;-59
2023/01/03 00:44:36;;;;;;;;;;;;;;;;;;5060163;28;19913;-59
2023/01/03 00:47:02;;;;;;;;;;;;;;;;;;5084313;28;19941;-58
2023/01/03 00:49:27;;;;;;;;;;;;;;;;;;5092318;28;19999;-59
2023/01/03 00:51:52;;;;;;;;;;;;;;;;;;5073374;28;20300;-58
2023/01/03 00:54:17;;;;;;;;;;;;;;;;;;5071916;28;19909;-58
2023/01/03 00:56:43;;;;;;;;;;;;;;;;;;5065178;28;19908;-58
2023/01/03 00:59:08;;;;;;;;;;;;;;;;;;5074193;28;20382;-58
2023/01/03 01:01:33;;;;;;;;;;;;;;;;;;5080613;28;20442;-58
2023/01/03 01:03:58;;;;;;;;;;;;;;;;;;5051048;28;19919;-59
2023/01/03 01:06:23;;;;;;;;;;;;;;;;;;5069271;28;19916;-58
2023/01/03 01:08:48;;;;;;;;;;;;;;;;;;5041189;28;19931;-59
2023/01/03 01:11:14;;;;;;;;;;;;;;;;;;5065173;28;19916;-58
2023/01/03 01:13:39;;;;;;;;;;;;;;;;;;5071155;28;20369;-59
2023/01/03 01:16:04;;;;;;;;;;;;;;;;;;5074799;28;20010;-59
2023/01/03 01:18:29;;;;;;;;;;;;;;;;;;5090263;28;20002;-59
2023/01/03 01:20:54;;;;;;;;;;;;;;;;;;5077138;28;19917;-58
2023/01/03 01:23:19;;;;;;;;;;;;;;;;;;5075190;28;19912;-58
2023/01/03 01:25:44;;;;;;;;;;;;;;;;;;5075280;28;20368;-58
2023/01/03 01:28:10;;;;;;;;;;;;;;;;;;5075080;28;19958;-58
2023/01/03 01:30:35;;;;;;;;;;;;;;;;;;5074162;28;19966;-58
2023/01/03 01:33:00;;;;;;;;;;;;;;;;;;5074479;28;19919;-59
2023/01/03 01:35:25;;;;;;;;;;;;;;;;;;5054318;28;20368;-58
2023/01/03 01:37:50;;;;;;;;;;;;;;;;;;5074043;28;19924;-59
2023/01/03 01:40:15;;;;;;;;;;;;;;;;;;5074729;28;20003;-59
2023/01/03 01:45:38;;;;;;;;;;;;;;;;;;5008290;28;20008;-59
2023/01/03 01:48:03;;;;;;;;;;;;;;;;;;5010726;28;19996;-58
2023/01/03 01:50:28;;;;;;;;;;;;;;;;;;4993535;28;19914;-56
2023/01/03 01:52:54;;;;;;;;;;;;;;;;;;4986199;28;19921;-58
2023/01/03 01:55:19;;;;;;;;;;;;;;;;;;5011833;28;20373;-58
2023/01/03 01:57:44;;;;;;;;;;;;;;;;;;5011471;28;19913;-60
2023/01/03 02:00:09;;;;;;;;;;;;;;;;;;5011840;28;20004;-58
2023/01/03 02:02:34;;;;;;;;;;;;;;;;;;5012464;28;19957;-57
2023/01/03 02:04:59;;;;;;;;;;;;;;;;;;4993234;28;20370;-58
2023/01/03 02:07:24;;;;;;;;;;;;;;;;;;5010706;28;19917;-58
2023/01/03 02:09:49;;;;;;;;;;;;;;;;;;5012663;28;19914;-58
2023/01/03 02:14:58;;;;;;;;;;;;;;;;;;5012920;28;19920;-58
2023/01/03 02:17:23;;;;;;;;;;;;;;;;;;5010608;28;20297;-58
2023/01/03 02:19:48;;;;;;;;;;;;;;;;;;5012809;28;20382;-59
2023/01/03 02:22:14;;;;;;;;;;;;;;;;;;5069286;28;19916;-58
2023/01/03 02:24:39;;;;;;;;;;;;;;;;;;5072061;28;19939;-58
2023/01/03 02:27:04;;;;;;;;;;;;;;;;;;5057730;28;19924;-57
2023/01/03 02:29:29;;;;;;;;;;;;;;;;;;5082252;28;20114;-58
2023/01/03 02:31:54;;;;;;;;;;;;;;;;;;5078840;28;19913;-60
2023/01/03 02:34:20;;;;;;;;;;;;;;;;;;5078195;28;22251;-59
2023/01/03 02:36:45;;;;;;;;;;;;;;;;;;5072017;28;20006;-58
2023/01/03 02:39:10;;;;;;;;;;;;;;;;;;5071587;28;19928;-59
2023/01/03 02:41:35;;;;;;;;;;;;;;;;;;5072337;28;19955;-58
2023/01/03 02:44:00;;;;;;;;;;;;;;;;;;5060269;28;19913;-59
2023/01/03 02:46:26;;;;;;;;;;;;;;;;;;5066198;28;19912;-59
2023/01/03 02:48:51;;;;;;;;;;;;;;;;;;5057144;28;19913;-58
2023/01/03 02:51:16;;;;;;;;;;;;;;;;;;5042707;28;20011;-59
2023/01/03 02:53:41;;;;;;;;;;;;;;;;;;5055020;28;19990;-59
2023/01/03 02:56:06;;;;;;;;;;;;;;;;;;5062212;28;19908;-58
2023/01/03 02:58:31;;;;;;;;;;;;;;;;;;5070261;28;19912;-59
2023/01/03 03:00:58;;;;;;;;;;;;;;;;;;5071919;28;19948;-59
2023/01/03 03:03:24;;;;;;;;;;;;;;;;;;5073830;28;19913;-60
2023/01/03 03:05:49;;;;;;;;;;;;;;;;;;5059343;28;20008;-59
2023/01/03 03:08:14;;;;;;;;;;;;;;;;;;5068748;28;19908;-59
2023/01/03 03:13:23;;;;;;;;;;;;;;;;;;5068936;28;20430;-59
2023/01/03 03:15:48;;;;;;;;;;;;;;;;;;5050514;28;19916;-59
2023/01/03 03:18:13;;;;;;;;;;;;;;;;;;5052515;28;19921;-59
2023/01/03 03:26:06;;;;;;;;;;;;;;;;;;5052615;28;19919;-59
2023/01/03 03:28:34;;;;;;;;;;;;;;;;;;5052690;28;19917;-60
2023/01/03 03:30:59;;;;;;;;;;;;;;;;;;5056209;28;19979;-59
2023/01/03 03:33:24;;;;;;;;;;;;;;;;;;5063685;28;21781;-59
2023/01/03 03:35:49;;;;;;;;;;;;;;;;;;5067919;28;19912;-60
2023/01/03 03:38:14;;;;;;;;;;;;;;;;;;5058825;28;19950;-59
2023/01/03 03:46:07;;;;;;;;;;;;;;;;;;5078781;28;19920;-59
2023/01/03 03:49:36;;;;;;;;;;;;;;;;;;5072271;28;19912;-59
2023/01/03 03:51:18;;;;;;;;;;;;;;;;;;5071557;28;20394;-59
2023/01/03 03:53:43;;;;;;;;;;;;;;;;;;5071691;28;19987;-59
2023/01/03 03:56:08;;;;;;;;;;;;;;;;;;5071542;28;19912;-59
2023/01/03 03:58:33;;;;;;;;;;;;;;;;;;5071033;28;20380;-59
2023/01/03 04:00:58;;;;;;;;;;;;;;;;;;5072828;28;19912;-59
2023/01/03 04:03:23;;;;;;;;;;;;;;;;;;5071540;28;20003;-59
2023/01/03 04:05:48;;;;;;;;;;;;;;;;;;5061828;28;19912;-60
2023/01/03 04:08:14;;;;;;;;;;;;;;;;;;5077190;28;19971;-59
2023/01/03 04:10:39;;;;;;;;;;;;;;;;;;5078834;28;19915;-60
2023/01/03 04:13:04;;;;;;;;;;;;;;;;;;5076800;28;19944;-59
2023/01/03 04:15:29;;;;;;;;;;;;;;;;;;5083797;28;19958;-60
2023/01/03 04:17:54;;;;;;;;;;;;;;;;;;5066372;28;19919;-61
2023/01/03 04:20:19;;;;;;;;;;;;;;;;;;5070268;28;19913;-60
2023/01/03 04:22:44;;;;;;;;;;;;;;;;;;5074863;28;19912;-60
2023/01/03 04:25:09;;;;;;;;;;;;;;;;;;5080231;28;19957;-60
2023/01/03 04:27:35;;;;;;;;;;;;;;;;;;5067734;28;20404;-60
2023/01/03 04:30:00;;;;;;;;;;;;;;;;;;5070512;28;19917;-59
2023/01/03 04:32:25;;;;;;;;;;;;;;;;;;5091671;28;19908;-60
2023/01/03 04:34:50;;;;;;;;;;;;;;;;;;5070219;28;20367;-59
2023/01/03 04:37:15;;;;;;;;;;;;;;;;;;5065786;28;19913;-60
2023/01/03 04:39:40;;;;;;;;;;;;;;;;;;5070977;28;19970;-60
2023/01/03 04:44:00;;;;;;;;;;;;;;;;;;5086101;28;20430;-60
2023/01/03 04:44:51;;;;;;;;;;;;;;;;;;5073477;28;19934;-60
2023/01/03 04:47:16;;;;;;;;;;;;;;;;;;5056913;28;19916;-60
2023/01/03 04:49:41;;;;;;;;;;;;;;;;;;5071997;28;20372;-60
2023/01/03 04:52:06;;;;;;;;;;;;;;;;;;5072788;28;20372;-60
2023/01/03 04:54:31;;;;;;;;;;;;;;;;;;5079122;28;19923;-60
2023/01/03 04:56:56;;;;;;;;;;;;;;;;;;5084008;28;19999;-60
2023/01/03 04:59:21;;;;;;;;;;;;;;;;;;5074781;28;19916;-60
2023/01/03 05:01:50;;;;;;;;;;;;;;;;;;5074215;28;19915;-60
2023/01/03 05:04:15;;;;;;;;;;;;;;;;;;5055704;28;20273;-60
2023/01/03 05:06:41;;;;;;;;;;;;;;;;;;5072671;28;19919;-59
2023/01/03 05:09:06;;;;;;;;;;;;;;;;;;5075440;28;19955;-60
2023/01/03 05:11:31;;;;;;;;;;;;;;;;;;5073762;28;20156;-60
2023/01/03 05:13:56;;;;;;;;;;;;;;;;;;5074945;28;19919;-59
2023/01/03 05:16:21;;;;;;;;;;;;;;;;;;5079054;28;19995;-60
2023/01/03 05:18:50;;;;;;;;;;;;;;;;;;5074616;28;20316;-60
2023/01/03 05:26:43;;;;;;;;;;;;;;;;;;5062386;28;19920;-60
2023/01/03 05:29:08;;;;;;;;;;;;;;;;;;5071331;28;19928;-59
2023/01/03 05:31:33;;;;;;;;;;;;;;;;;;5074894;28;19916;-59
2023/01/03 05:33:59;;;;;;;;;;;;;;;;;;5074229;28;19919;-59
2023/01/03 05:36:24;;;;;;;;;;;;;;;;;;5069666;28;20461;-60
2023/01/03 05:38:49;;;;;;;;;;;;;;;;;;5072919;28;19920;-59
2023/01/03 05:41:58;;;;;;;;;;;;;;;;;;5074083;28;19912;-60
2023/01/03 05:43:59;;;;;;;;;;;;;;;;;;5068844;28;20369;-60
2023/01/03 05:46:24;;;;;;;;;;;;;;;;;;5073996;28;19963;-60
2023/01/03 05:48:49;;;;;;;;;;;;;;;;;;5074363;28;19938;-60
2023/01/03 05:51:14;;;;;;;;;;;;;;;;;;5073382;28;19930;-60
2023/01/03 05:53:40;;;;;;;;;;;;;;;;;;5054741;28;20007;-59
2023/01/03 05:56:05;;;;;;;;;;;;;;;;;;5076128;28;19912;-60
2023/01/03 05:58:30;;;;;;;;;;;;;;;;;;5081904;28;19944;-60
2023/01/03 06:00:55;;;;;;;;;;;;;;;;;;5073758;28;19917;-59
2023/01/03 06:03:20;;;;;;;;;;;;;;;;;;5075179;28;20011;-59
2023/01/03 06:05:45;;;;;;;;;;;;;;;;;;5067102;28;19912;-60
2023/01/03 06:08:10;;;;;;;;;;;;;;;;;;5074532;28;19916;-59
2023/01/03 06:10:36;;;;;;;;;;;;;;;;;;5057937;28;20364;-59
2023/01/03 06:13:01;;;;;;;;;;;;;;;;;;5076578;28;20451;-60
2023/01/03 06:15:26;;;;;;;;;;;;;;;;;;5072985;28;19919;-59
2023/01/03 06:17:56;;;;;;;;;;;;;;;;;;5072819;28;19969;-57
2023/01/03 06:20:21;;;;;;;;;;;;;;;;;;5072748;28;20302;-59
2023/01/03 06:22:46;;;;;;;;;;;;;;;;;;5090051;28;19912;-59
2023/01/03 06:25:11;;;;;;;;;;;;;;;;;;5087882;28;19966;-59
2023/01/03 06:27:37;;;;;;;;;;;;;;;;;;5074566;28;19908;-59
2023/01/03 06:30:02;;;;;;;;;;;;;;;;;;5082365;28;19920;-59
2023/01/03 06:32:27;;;;;;;;;;;;;;;;;;5090340;28;19934;-59
2023/01/03 06:34:52;;;;;;;;;;;;;;;;;;5068755;28;20353;-61
2023/01/03 06:37:17;;;;;;;;;;;;;;;;;;5074308;28;20342;-60
2023/01/03 06:39:42;;;;;;;;;;;;;;;;;;5060219;28;19974;-60
2023/01/03 06:53:12;;;;;;;;;;;;;;;;;;5068412;28;20188;-59
2023/01/03 06:55:37;;;;;;;;;;;;;;;;;;5073021;28;19913;-58
2023/01/03 06:58:02;;;;;;;;;;;;;;;;;;5070729;28;19919;-59
2023/01/03 07:00:27;;;;;;;;;;;;;;;;;;5081585;28;19954;-59
2023/01/03 07:02:53;;;;;;;;;;;;;;;;;;5073443;28;19916;-59
2023/01/03 07:05:18;;;;;;;;;;;;;;;;;;5052166;28;19966;-59
2023/01/03 07:07:43;;;;;;;;;;;;;;;;;;5053699;28;19912;-59
2023/01/03 07:10:08;;;;;;;;;;;;;;;;;;5085583;28;19922;-59
2023/01/03 07:15:17;;;;;;;;;;;;;;;;;;5070579;28;19919;-59
2023/01/03 07:17:42;;;;;;;;;;;;;;;;;;5071911;28;20296;-59
2023/01/03 07:20:07;;;;;;;;;;;;;;;;;;5073191;28;20407;-59
2023/01/03 07:22:32;;;;;;;;;;;;;;;;;;5072270;28;20360;-59
2023/01/03 07:24:58;;;;;;;;;;;;;;;;;;5073456;28;20420;-59
2023/01/03 07:27:23;;;;;;;;;;;;;;;;;;5073313;28;20368;-59
2023/01/03 07:29:48;;;;;;;;;;;;;;;;;;5070834;28;19917;-59
2023/01/03 07:32:13;;;;;;;;;;;;;;;;;;5072816;28;19917;-60
2023/01/03 07:34:38;;;;;;;;;;;;;;;;;;5085872;28;19916;-59
2023/01/03 07:37:03;;;;;;;;;;;;;;;;;;5072815;28;19912;-59
2023/01/03 07:39:28;;;;;;;;;;;;;;;;;;5070526;28;19974;-58
2023/01/03 07:44:37;;;;;;;;;;;;;;;;;;5087625;28;20322;-60
2023/01/03 07:47:02;;;;;;;;;;;;;;;;;;5093407;28;19908;-59
2023/01/03 07:49:28;;;;;;;;;;;;;;;;;;5089933;28;19908;-59
2023/01/03 07:51:53;;;;;;;;;;;;;;;;;;5072660;28;20318;-59
2023/01/03 07:54:18;;;;;;;;;;;;;;;;;;5080303;28;19912;-59
2023/01/03 07:56:43;;;;;;;;;;;;;;;;;;5084631;28;19909;-60
2023/01/03 07:59:08;;;;;;;;;;;;;;;;;;5072849;28;19948;-59
2023/01/03 08:01:33;;;;;;;;;;;;;;;;;;5071583;28;19916;-59
2023/01/03 08:03:58;;;;;;;;;;;;;;;;;;5070668;28;19913;-59
2023/01/03 08:06:23;;;;;;;;;;;;;;;;;;5070768;28;19916;-59
2023/01/03 08:13:16;;;;;;;;;;;;;;;;;;5072363;28;19909;-59
2023/01/03 08:14:18;;;;;;;;;;;;;;;;;;5070497;28;20015;-59
2023/01/03 08:16:43;;;;;;;;;;;;;;;;;;5071961;28;19955;-59
2023/01/03 08:19:08;;;;;;;;;;;;;;;;;;5072793;28;19924;-60
2023/01/03 08:21:33;;;;;;;;;;;;;;;;;;5070466;28;19997;-59
2023/01/03 08:23:58;;;;;;;;;;;;;;;;;;5072048;28;19909;-59
2023/01/03 08:26:23;;;;;;;;;;;;;;;;;;5071808;28;19967;-59
2023/01/03 08:28:48;;;;;;;;;;;;;;;;;;5072143;28;19974;-59
2023/01/03 08:31:13;;;;;;;;;;;;;;;;;;5071876;28;20288;-59
2023/01/03 08:33:39;;;;;;;;;;;;;;;;;;5066219;28;19913;-60
2023/01/03 08:36:04;;;;;;;;;;;;;;;;;;5044083;28;20002;-60
2023/01/03 08:38:29;;;;;;;;;;;;;;;;;;5066464;28;19924;-59
2023/01/03 08:40:54;;;;;;;;;;;;;;;;;;5069692;28;20338;-61
2023/01/03 08:43:19;;;;;;;;;;;;;;;;;;5067568;28;19959;-60
2023/01/03 08:45:44;;;;;;;;;;;;;;;;;;5034351;28;19912;-57
2023/01/03 08:48:09;;;;;;;;;;;;;;;;;;5065448;28;19959;-59
2023/01/03 08:50:34;;;;;;;;;;;;;;;;;;5051931;28;19919;-59
2023/01/03 08:53:00;;;;;;;;;;;;;;;;;;5062918;28;19951;-59
2023/01/03 08:55:25;;;;;;;;;;;;;;;;;;5072225;28;19912;-59
2023/01/03 08:57:50;;;;;;;;;;;;;;;;;;5076702;28;19916;-60
2023/01/03 09:00:15;;;;;;;;;;;;;;;;;;5071514;28;20376;-59
2023/01/03 09:02:40;;;;;;;;;;;;;;;;;;5072274;28;19955;-59
2023/01/03 09:05:05;;;;;;;;;;;;;;;;;;5050839;28;19942;-59
2023/01/03 09:07:30;;;;;;;;;;;;;;;;;;5067456;28;19920;-59
2023/01/03 09:09:56;;;;;;;;;;;;;;;;;;5061900;28;20357;-59
2023/01/03 09:12:21;;;;;;;;;;;;;;;;;;5062636;28;19931;-59
2023/01/03 09:14:46;;;;;;;;;;;;;;;;;;5067440;28;19913;-60
2023/01/03 09:17:11;;;;;;;;;;;;;;;;;;5068665;28;19916;-60
2023/01/03 09:19:36;;;;;;;;;;;;;;;;;;5063764;28;19912;-59
2023/01/03 09:22:01;;;;;;;;;;;;;;;;;;5068402;28;20050;-59
2023/01/03 09:24:26;;;;;;;;;;;;;;;;;;5067852;28;19913;-60
2023/01/03 09:26:52;;;;;;;;;;;;;;;;;;5068457;28;19912;-60
2023/01/03 09:29:17;;;;;;;;;;;;;;;;;;5068353;28;19995;-60
2023/01/03 09:31:42;;;;;;;;;;;;;;;;;;5068991;28;20433;-59
2023/01/03 09:34:07;;;;;;;;;;;;;;;;;;5069867;28;19920;-59
2023/01/03 09:36:33;;;;;;;;;;;;;;;;;;5065628;28;19923;-59
2023/01/03 09:38:58;;;;;;;;;;;;;;;;;;5066570;28;19922;-60
2023/01/03 09:41:23;;;;;;;;;;;;;;;;;;5055311;28;19962;-59
2023/01/03 09:43:48;;;;;;;;;;;;;;;;;;5073845;28;19920;-59
2023/01/03 09:46:14;;;;;;;;;;;;;;;;;;5072382;28;20023;-59
2023/01/03 09:48:39;;;;;;;;;;;;;;;;;;5071362;28;19935;-59
2023/01/03 10:03:42;;;;;;;;;;;;;;;;;;5073707;28;19951;-59
2023/01/03 10:04:45;;;;;;;;;;;;;;;;;;5073306;28;19919;-61
2023/01/03 10:07:10;;;;;;;;;;;;;;;;;;5072909;28;19912;-59
2023/01/03 10:09:35;;;;;;;;;;;;;;;;;;5064961;28;19912;-59
2023/01/03 10:12:00;;;;;;;;;;;;;;;;;;5071943;28;20011;-60
2023/01/03 10:14:25;;;;;;;;;;;;;;;;;;5073066;28;19917;-60
2023/01/03 10:16:50;;;;;;;;;;;;;;;;;;5071048;28;19912;-60
2023/01/03 10:19:16;;;;;;;;;;;;;;;;;;5070477;28;19923;-60
2023/01/03 10:21:41;;;;;;;;;;;;;;;;;;5072994;28;19919;-60
2023/01/03 10:24:06;;;;;;;;;;;;;;;;;;5064524;28;19951;-60
2023/01/03 10:26:31;;;;;;;;;;;;;;;;;;5065465;28;19913;-61
2023/01/03 10:28:56;;;;;;;;;;;;;;;;;;5054226;28;19912;-60
2023/01/03 10:31:22;;;;;;;;;;;;;;;;;;5069880;28;19917;-58
2023/01/03 10:33:47;;;;;;;;;;;;;;;;;;5066455;28;19916;-60
2023/01/03 10:36:13;;;;;;;;;;;;;;;;;;5070071;28;19919;-60
2023/01/03 10:38:38;;;;;;;;;;;;;;;;;;5068621;28;19959;-60
2023/01/03 10:41:03;;;;;;;;;;;;;;;;;;5069702;28;19977;-59
2023/01/03 10:43:28;;;;;;;;;;;;;;;;;;5071212;28;19920;-60
2023/01/03 10:45:53;;;;;;;;;;;;;;;;;;5062900;28;19963;-60
2023/01/03 10:48:18;;;;;;;;;;;;;;;;;;5071382;28;19920;-60
2023/01/03 10:50:43;;;;;;;;;;;;;;;;;;5071058;28;20015;-60
2023/01/03 10:53:09;;;;;;;;;;;;;;;;;;5065810;28;20365;-60
2023/01/03 10:55:34;;;;;;;;;;;;;;;;;;5062327;28;19921;-60
2023/01/03 10:57:59;;;;;;;;;;;;;;;;;;5070590;28;19921;-60
2023/01/03 11:00:25;;;;;;;;;;;;;;;;;;5061992;28;19917;-60
2023/01/03 11:02:50;;;;;;;;;;;;;;;;;;5065045;28;20007;-60
2023/01/03 11:05:15;;;;;;;;;;;;;;;;;;5066638;28;19912;-60
2023/01/03 11:07:40;;;;;;;;;;;;;;;;;;5071006;28;20357;-60
2023/01/03 11:10:05;;;;;;;;;;;;;;;;;;5069876;28;19955;-60
2023/01/03 11:12:31;;;;;;;;;;;;;;;;;;5067460;28;19913;-60
2023/01/03 11:14:56;;;;;;;;;;;;;;;;;;5058730;28;20339;-60
2023/01/03 11:17:21;;;;;;;;;;;;;;;;;;5042534;28;20257;-60
2023/01/03 11:19:46;;;;;;;;;;;;;;;;;;5063536;28;19958;-60
2023/01/03 11:22:11;;;;;;;;;;;;;;;;;;5067646;28;19912;-59
2023/01/03 11:24:36;;;;;;;;;;;;;;;;;;5070748;28;19952;-60
2023/01/03 11:27:01;;;;;;;;;;;;;;;;;;5069472;28;20013;-57
2023/01/03 11:29:28;;;;;;;;;;;;;;;;;;5069882;28;19938;-60
2023/01/03 11:31:53;;;;;;;;;;;;;;;;;;5061585;28;19928;-60
2023/01/03 11:34:18;;;;;;;;;;;;;;;;;;5067538;28;19923;-60
2023/01/03 11:36:44;;;;;;;;;;;;;;;;;;5069632;28;19920;-60
2023/01/03 11:39:09;;;;;;;;;;;;;;;;;;5061738;28;19974;-60
2023/01/03 11:41:34;;;;;;;;;;;;;;;;;;5070302;28;20577;-60
2023/01/03 11:43:59;;;;;;;;;;;;;;;;;;5069152;28;19913;-60
2023/01/03 11:46:24;;;;;;;;;;;;;;;;;;5054568;28;19926;-59
2023/01/03 11:48:49;;;;;;;;;;;;;;;;;;5057803;28;20277;-60
2023/01/03 11:51:15;;;;;;;;;;;;;;;;;;5068247;28;19959;-60
2023/01/03 11:53:40;;;;;;;;;;;;;;;;;;5068521;28;19913;-60
2023/01/03 11:56:05;;;;;;;;;;;;;;;;;;5069701;28;19912;-60
2023/01/03 11:58:31;;;;;;;;;;;;;;;;;;5072181;28;20011;-60
2023/01/03 12:00:59;;;;;;;;;;;;;;;;;;5070509;28;19924;-60
2023/01/03 12:03:24;;;;;;;;;;;;;;;;;;5067419;28;19920;-60
2023/01/03 12:05:49;;;;;;;;;;;;;;;;;;5054553;28;19921;-61
2023/01/03 12:08:15;;;;;;;;;;;;;;;;;;5063338;28;20019;-60
2023/01/03 12:10:40;;;;;;;;;;;;;;;;;;5070014;28;19924;-59
2023/01/03 12:13:05;;;;;;;;;;;;;;;;;;5050543;28;19917;-59
2023/01/03 12:15:30;;;;;;;;;;;;;;;;;;5069193;28;19912;-60
2023/01/03 12:17:55;;;;;;;;;;;;;;;;;;5069895;28;19958;-60
2023/01/03 12:20:20;;;;;;;;;;;;;;;;;;5069846;28;19919;-59
2023/01/03 12:22:46;;;;;;;;;;;;;;;;;;5068265;28;19909;-58
2023/01/03 12:25:11;;;;;;;;;;;;;;;;;;5067407;28;19912;-60
2023/01/03 12:27:36;;;;;;;;;;;;;;;;;;5065824;28;20000;-59
2023/01/03 12:30:01;;;;;;;;;;;;;;;;;;5067658;28;20324;-60
2023/01/03 12:32:26;;;;;;;;;;;;;;;;;;5066035;28;19955;-59
2023/01/03 12:34:51;;;;;;;;;;;;;;;;;;5059019;28;19919;-59
2023/01/03 12:37:16;;;;;;;;;;;;;;;;;;5069164;28;19912;-59
2023/01/03 12:39:41;;;;;;;;;;;;;;;;;;5070635;28;19960;-59
2023/01/03 12:42:07;;;;;;;;;;;;;;;;;;5069724;28;19920;-59
2023/01/03 12:44:32;;;;;;;;;;;;;;;;;;5068144;28;19913;-59
2023/01/03 12:46:57;;;;;;;;;;;;;;;;;;5062770;28;20419;-60
2023/01/03 12:49:22;;;;;;;;;;;;;;;;;;5070562;28;20004;-60
2023/01/03 12:51:47;;;;;;;;;;;;;;;;;;5068963;28;20292;-59
2023/01/03 12:54:12;;;;;;;;;;;;;;;;;;5070224;28;19918;-59
2023/01/03 12:56:38;;;;;;;;;;;;;;;;;;5065523;28;19943;-59
2023/01/03 12:59:03;;;;;;;;;;;;;;;;;;5065002;28;19922;-59
2023/01/03 13:01:28;;;;;;;;;;;;;;;;;;5060460;28;20322;-59
2023/01/03 13:03:53;;;;;;;;;;;;;;;;;;5069225;28;19920;-59
2023/01/03 13:06:18;;;;;;;;;;;;;;;;;;5071224;28;19913;-59
2023/01/03 13:08:43;;;;;;;;;;;;;;;;;;5065660;28;19916;-59
2023/01/03 13:11:08;;;;;;;;;;;;;;;;;;5069294;28;20898;-59
2023/01/03 13:13:33;;;;;;;;;;;;;;;;;;5070373;28;20027;-59
2023/01/03 13:15:59;;;;;;;;;;;;;;;;;;5066331;28;19913;-59
2023/01/03 13:18:24;;;;;;;;;;;;;;;;;;5074319;28;19920;-60
2023/01/03 13:20:49;;;;;;;;;;;;;;;;;;5075450;28;19951;-60
2023/01/03 13:23:14;;;;;;;;;;;;;;;;;;5074802;28;19915;-60
2023/01/03 13:25:39;;;;;;;;;;;;;;;;;;5072606;28;19915;-60
2023/01/03 13:28:05;;;;;;;;;;;;;;;;;;5069719;28;20350;-57
2023/01/03 13:30:30;;;;;;;;;;;;;;;;;;5075114;28;19912;-60
2023/01/03 13:32:55;;;;;;;;;;;;;;;;;;5075556;28;19917;-59
2023/01/03 13:35:20;;;;;;;;;;;;;;;;;;5074106;28;20064;-60
2023/01/03 13:37:46;;;;;;;;;;;;;;;;;;5073032;28;19912;-57
2023/01/03 13:40:11;;;;;;;;;;;;;;;;;;5072729;28;20369;-60
2023/01/03 13:42:36;;;;;;;;;;;;;;;;;;5075251;28;19915;-59
2023/01/03 13:45:01;;;;;;;;;;;;;;;;;;5075248;28;19948;-59
2023/01/03 13:47:26;;;;;;;;;;;;;;;;;;5073544;28;19924;-60
2023/01/03 13:49:51;;;;;;;;;;;;;;;;;;5072334;28;19919;-59
2023/01/03 13:52:16;;;;;;;;;;;;;;;;;;5074840;28;20334;-60
2023/01/03 13:54:41;;;;;;;;;;;;;;;;;;5074629;28;19966;-60
2023/01/03 13:57:07;;;;;;;;;;;;;;;;;;5058622;28;19920;-59
2023/01/03 13:59:33;;;;;;;;;;;;;;;;;;5069846;28;19920;-59
2023/01/03 14:01:58;;;;;;;;;;;;;;;;;;5065482;28;19913;-59
2023/01/03 14:04:23;;;;;;;;;;;;;;;;;;5056771;28;19921;-59
2023/01/03 14:06:48;;;;;;;;;;;;;;;;;;5074505;28;19912;-58
2023/01/03 14:09:14;;;;;;;;;;;;;;;;;;5073493;28;19917;-60
2023/01/03 14:11:40;;;;;;;;;;;;;;;;;;5071346;28;20285;-59
2023/01/03 14:14:05;;;;;;;;;;;;;;;;;;5068006;28;20001;-59
2023/01/03 14:16:30;;;;;;;;;;;;;;;;;;5054684;28;19909;-60
2023/01/03 14:18:55;;;;;;;;;;;;;;;;;;5071460;28;20360;-59
2023/01/03 14:21:20;;;;;;;;;;;;;;;;;;5065492;28;19916;-59
2023/01/03 14:23:45;;;;;;;;;;;;;;;;;;5067456;28;19916;-59
2023/01/03 14:26:10;;;;;;;;;;;;;;;;;;5059874;28;20027;-59
2023/01/03 14:28:35;;;;;;;;;;;;;;;;;;5079525;28;20298;-59
2023/01/03 14:31:01;;;;;;;;;;;;;;;;;;5068647;28;19916;-60
2023/01/03 14:33:26;;;;;;;;;;;;;;;;;;5072434;28;19912;-60
2023/01/03 14:35:51;;;;;;;;;;;;;;;;;;5070175;28;20394;-61
2023/01/03 14:38:16;;;;;;;;;;;;;;;;;;5074502;28;20276;-60
2023/01/03 14:40:41;;;;;;;;;;;;;;;;;;5069457;28;19923;-60
2023/01/03 14:43:06;;;;;;;;;;;;;;;;;;5072990;28;19913;-59
2023/01/03 14:45:32;;;;;;;;;;;;;;;;;;5074178;28;19912;-59
2023/01/03 14:47:57;;;;;;;;;;;;;;;;;;5071768;28;20430;-59
2023/01/03 14:50:22;;;;;;;;;;;;;;;;;;5022890;28;19918;-59
2023/01/03 14:52:47;;;;;;;;;;;;;;;;;;5067131;28;20007;-59
2023/01/03 14:55:13;;;;;;;;;;;;;;;;;;5070890;28;19915;-60
2023/01/03 14:57:38;;;;;;;;;;;;;;;;;;5073508;28;19908;-60
2023/01/03 15:00:03;;;;;;;;;;;;;;;;;;5072336;28;19927;-60
2023/01/03 15:02:28;;;;;;;;;;;;;;;;;;5028696;28;19913;-59
2023/01/03 15:04:53;;;;;;;;;;;;;;;;;;5073256;28;20471;-59
2023/01/03 15:07:18;;;;;;;;;;;;;;;;;;5085162;28;19920;-59
2023/01/03 15:09:44;;;;;;;;;;;;;;;;;;5072303;28;19912;-60
2023/01/03 15:12:09;;;;;;;;;;;;;;;;;;5072462;28;19962;-59
2023/01/03 15:14:34;;;;;;;;;;;;;;;;;;5072782;28;20832;-60
2023/01/03 15:17:00;;;;;;;;;;;;;;;;;;5073525;28;20310;-60
2023/01/03 15:19:25;;;;;;;;;;;;;;;;;;5070527;28;19913;-60
2023/01/03 15:21:50;;;;;;;;;;;;;;;;;;5060334;28;20442;-59
2023/01/03 15:24:15;;;;;;;;;;;;;;;;;;5069534;28;19916;-59
2023/01/03 15:26:40;;;;;;;;;;;;;;;;;;5067135;28;20280;-60
2023/01/03 15:29:05;;;;;;;;;;;;;;;;;;5069312;28;19934;-58
2023/01/03 15:31:31;;;;;;;;;;;;;;;;;;5055558;28;19918;-59
2023/01/03 15:33:58;;;;;;;;;;;;;;;;;;5013295;28;20208;-59
2023/01/03 15:36:23;;;;;;;;;;;;;;;;;;5068935;28;19924;-59
2023/01/03 15:38:48;;;;;;;;;;;;;;;;;;5069704;28;19922;-59
2023/01/03 15:41:13;;;;;;;;;;;;;;;;;;5032017;28;19922;-57
2023/01/03 15:43:39;;;;;;;;;;;;;;;;;;5014995;28;20334;-59
2023/01/03 15:46:04;;;;;;;;;;;;;;;;;;5070550;28;19917;-60
2023/01/03 15:48:30;;;;;;;;;;;;;;;;;;5064229;28;19927;-59
2023/01/03 15:50:55;;;;;;;;;;;;;;;;;;5071875;28;19920;-58
2023/01/03 15:53:20;;;;;;;;;;;;;;;;;;5072132;28;19958;-59
2023/01/03 15:55:46;;;;;;;;;;;;;;;;;;5071253;28;20071;-59
2023/01/03 15:58:11;;;;;;;;;;;;;;;;;;5064600;28;19913;-60
2023/01/03 16:00:36;;;;;;;;;;;;;;;;;;5071228;28;19908;-59
2023/01/03 16:03:01;;;;;;;;;;;;;;;;;;5067883;28;19948;-60
2023/01/03 16:05:26;;;;;;;;;;;;;;;;;;5074932;28;19912;-59
2023/01/03 16:07:51;;;;;;;;;;;;;;;;;;5072477;28;19912;-59
2023/01/03 16:10:16;;;;;;;;;;;;;;;;;;5067506;28;20403;-59
2023/01/03 16:12:41;;;;;;;;;;;;;;;;;;5070385;28;19917;-59
2023/01/03 16:15:07;;;;;;;;;;;;;;;;;;5071621;28;19919;-59
2023/01/03 16:17:32;;;;;;;;;;;;;;;;;;5071048;28;20007;-60
2023/01/03 16:19:57;;;;;;;;;;;;;;;;;;5071578;28;20249;-60
2023/01/03 16:22:23;;;;;;;;;;;;;;;;;;5068727;28;19958;-59
2023/01/03 16:24:48;;;;;;;;;;;;;;;;;;5069962;28;19966;-59
2023/01/03 16:27:13;;;;;;;;;;;;;;;;;;5070414;28;19958;-60
2023/01/03 16:29:38;;;;;;;;;;;;;;;;;;5071408;28;19962;-59
2023/01/03 16:32:03;;;;;;;;;;;;;;;;;;5068777;28;20010;-60
2023/01/03 16:34:28;;;;;;;;;;;;;;;;;;5071388;28;20302;-59
2023/01/03 16:36:54;;;;;;;;;;;;;;;;;;5069294;28;19985;-59
2023/01/03 16:39:19;;;;;;;;;;;;;;;;;;5052136;28;20345;-59
2023/01/03 16:42:11;;;;;;;;;;;;;;;;;;5070439;28;20361;-60
2023/01/03 16:44:29;;;;;;;;;;;;;;;;;;5070840;28;20320;-59
2023/01/03 16:46:54;;;;;;;;;;;;;;;;;;5067925;28;19913;-60
2023/01/03 16:49:19;;;;;;;;;;;;;;;;;;5055069;28;19916;-59
2023/01/03 16:51:49;;;;;;;;;;;;;;;;;;5073703;28;19924;-59
2023/01/03 16:54:15;;;;;;;;;;;;;;;;;;5076460;28;19908;-60
2023/01/03 16:56:40;;;;;;;;;;;;;;;;;;5073046;28;20274;-59
2023/01/03 16:59:05;;;;;;;;;;;;;;;;;;5071056;28;19917;-59
2023/01/03 17:01:30;;;;;;;;;;;;;;;;;;5074304;28;20102;-59
2023/01/03 17:03:55;;;;;;;;;;;;;;;;;;5076000;28;19913;-60
2023/01/03 17:06:20;;;;;;;;;;;;;;;;;;5073120;28;19912;-59
2023/01/03 17:08:45;;;;;;;;;;;;;;;;;;5071978;28;20007;-59
2023/01/03 17:11:10;;;;;;;;;;;;;;;;;;5075357;28;20268;-59
2023/01/03 17:13:36;;;;;;;;;;;;;;;;;;5077451;28;20342;-59
2023/01/03 17:16:01;;;;;;;;;;;;;;;;;;5073913;28;19912;-59
2023/01/03 17:18:26;;;;;;;;;;;;;;;;;;5074426;28;19920;-59
2023/01/03 17:20:51;;;;;;;;;;;;;;;;;;5074096;28;19912;-60
2023/01/03 17:23:17;;;;;;;;;;;;;;;;;;5072193;28;19919;-59
2023/01/03 17:25:42;;;;;;;;;;;;;;;;;;5075573;28;19988;-60
2023/01/03 17:28:07;;;;;;;;;;;;;;;;;;5076694;28;19909;-60